Terminal Aerodrome Forecast
Issued by NWS

Home | Current Version | Previous Version | Graphics & Text | Print | Product List | Glossary On
Versions: 1 2 3 4 5 6 7 8 9 10 11 12 13 14 15
698
FTUS43 KICT 110539
TAFCNU
TAF
KCNU 110539Z 1106/1206 05007KT P6SM FEW250
     FM111200 04007KT P6SM BKN015
     FM111700 07007KT P6SM SCT250
     FM120000 VRB05KT P6SM SKC=

USA.gov is the U.S. government's official web portal to all federal, state and local government web resources and services.